This is the latest recevied weather packets stored in our database for station/object PY1LEO-13. If no packets are shown the sender has not sent any weather packets the latest 10 day(s).
| Time | Temp. | Humidity | Pressure | Rain* | Wind** | Luminosity | Snow |
|---|---|---|---|---|---|---|---|
| 1777293209 | 30° C | 57% | 1012.8 hPa | - | - | - | - |
| 1777292909 | 30.56° C | 55% | 1012.8 hPa | - | - | - | - |
| 1777292609 | 31.11° C | 55% | 1012.8 hPa | - | - | - | - |
| 1777292309 | 31.11° C | 56% | 1012.8 hPa | - | - | - | - |
| 1777292009 | 31.11° C | 55% | 1012.8 hPa | - | - | - | - |
| 1777291709 | 31.11° C | 54% | 1012.8 hPa | - | - | - | - |
| 1777291409 | 31.11° C | 55% | 1012.8 hPa | - | - | - | - |
| 1777291109 | 30° C | 56% | 1012.8 hPa | - | - | - | - |
| 1777290809 | 29.44° C | 58% | 1012.7 hPa | - | - | - | - |
| 1777290509 | 29.44° C | 59% | 1012.7 hPa | - | - | - | - |
| 1777290209 | 28.89° C | 60% | 1012.7 hPa | - | - | - | - |
| 1777289909 | 28.89° C | 61% | 1012.8 hPa | - | - | - | - |
| 1777289609 | 28.89° C | 59% | 1012.9 hPa | - | - | - | - |
| 1777289309 | 28.89° C | 59% | 1012.8 hPa | - | - | - | - |
| 1777289008 | 29.44° C | 58% | 1012.8 hPa | - | - | - | - |
| 1777288709 | 28.89° C | 59% | 1012.7 hPa | - | - | - | - |
| 1777288408 | 28.89° C | 59% | 1012.7 hPa | - | - | - | - |
| 1777288109 | 28.89° C | 61% | 1012.7 hPa | - | - | - | - |
| 1777287808 | 28.89° C | 58% | 1012.6 hPa | - | - | - | - |
| 1777287509 | 28.33° C | 60% | 1012.5 hPa | - | - | - | - |
| 1777287209 | 28.33° C | 60% | 1012.6 hPa | - | - | - | - |
| 1777286909 | 28.33° C | 60% | 1012.6 hPa | - | - | - | - |
| 1777286608 | 28.33° C | 58% | 1012.5 hPa | - | - | - | - |
| 1777286308 | 28.33° C | 58% | 1012.5 hPa | - | - | - | - |
| 1777286009 | 28.33° C | 57% | 1012.5 hPa | - | - | - | - |
* Rain since midnight (hover to see other rain measurements)
** Current wind speed in m/s (hover to see current wind gust speed)